Time;durP1;ratioP1;P1;durP2;ratioP2;P2;SDS_P1;SDS_P2;PMS_P1;PMS_P2;Temp;Humidity;BMP_temperature;BMP_pressure;BME280_temperature;BME280_humidity;BME280_pressure;Samples;Min_cycle;Max_cycle;Signal;HPM_P1;HPM_P2
2022/06/17 00:00:24;;;;;;;;;11.75;11.75;;;;;25.76;42.64;99498.97;5014679;28;46601;-75
2022/06/17 00:02:50;;;;;;;;;13.20;10.80;;;;;25.68;42.58;99495.16;5015122;28;45410;-75
2022/06/17 00:05:15;;;;;;;;;11.00;9.50;;;;;25.63;43.18;99494.78;5013730;28;45532;-75
2022/06/17 00:07:42;;;;;;;;;9.75;9.75;;;;;25.59;43.00;99490.63;5014952;28;45456;-75
2022/06/17 00:10:22;;;;;;;;;11.50;11.50;;;;;25.55;43.20;99504.56;5012707;28;45497;-75
2022/06/17 00:12:48;;;;;;;;;15.75;14.50;;;;;25.51;42.95;99495.03;5014833;28;45418;-74
2022/06/17 00:15:13;;;;;;;;;14.00;12.25;;;;;25.51;43.02;99503.16;5012000;28;45516;-75
2022/06/17 00:17:48;;;;;;;;;17.25;13.25;;;;;25.49;43.02;99502.44;5008193;28;45316;-75
2022/06/17 00:20:18;;;;;;;;;12.75;12.75;;;;;25.48;43.27;99507.00;4992499;28;46080;-75
2022/06/17 00:22:45;;;;;;;;;10.20;9.40;;;;;25.48;43.18;99506.13;5009407;28;45418;-75
2022/06/17 00:25:25;;;;;;;;;12.50;11.75;;;;;25.46;43.17;99503.63;5014011;28;45504;-75
2022/06/17 00:27:50;;;;;;;;;14.25;13.00;;;;;25.48;43.17;99503.44;5014469;28;45440;-75
2022/06/17 00:30:20;;;;;;;;;17.25;13.25;;;;;25.49;43.44;99503.28;5011172;28;46025;-75
2022/06/17 00:32:45;;;;;;;;;12.75;12.75;;;;;25.47;44.14;99513.38;5011562;28;45439;-76
2022/06/17 00:35:12;;;;;;;;;14.75;13.25;;;;;25.48;44.65;99511.53;5013896;28;45577;-75
2022/06/17 00:37:40;;;;;;;;;14.00;14.00;;;;;25.44;44.65;99515.56;5014081;28;45443;-75
2022/06/17 00:40:29;;;;;;;;;17.25;15.00;;;;;25.41;44.82;99513.13;5004802;28;47358;-75
2022/06/17 00:42:56;;;;;;;;;15.50;14.00;;;;;25.36;44.78;99510.88;5006618;28;45484;-75
2022/06/17 00:45:31;;;;;;;;;16.25;14.50;;;;;25.38;44.96;99511.56;5011180;28;45534;-75
2022/06/17 00:48:06;;;;;;;;;13.50;12.75;;;;;25.38;45.32;99508.88;5005753;28;45752;-75
2022/06/17 00:50:44;;;;;;;;;17.25;15.75;;;;;25.38;45.41;99512.44;5010696;28;45366;-74
2022/06/17 00:53:09;;;;;;;;;14.50;14.50;;;;;25.40;45.64;99520.38;4996180;28;45704;-75
2022/06/17 00:55:46;;;;;;;;;14.00;14.00;;;;;25.40;45.59;99514.97;5014173;28;45455;-75
2022/06/17 00:58:20;;;;;;;;;14.75;14.50;;;;;25.36;45.73;99519.81;5013994;28;45370;-75
2022/06/17 01:00:47;;;;;;;;;14.25;14.25;;;;;25.34;45.77;99527.22;5011743;28;46042;-75
2022/06/17 01:03:21;;;;;;;;;15.50;14.00;;;;;25.28;45.51;99530.50;5013494;28;45450;-75
2022/06/17 01:05:51;;;;;;;;;14.75;14.75;;;;;25.20;45.87;99537.59;4994620;28;45662;-75
2022/06/17 01:11:25;;;;;;;;;14.75;13.25;;;;;25.17;46.22;99536.03;5013955;28;45360;-77
2022/06/17 01:13:52;;;;;;;;;14.75;13.00;;;;;25.17;46.12;99535.19;4997985;28;45450;-75
2022/06/17 01:16:23;;;;;;;;;16.50;15.00;;;;;25.15;46.17;99539.88;5007807;28;45419;-74
2022/06/17 01:18:51;;;;;;;;;13.50;12.75;;;;;25.12;46.24;99549.13;5013305;28;45391;-76
2022/06/17 01:21:51;;;;;;;;;15.75;15.75;;;;;25.09;46.71;99545.88;5009481;28;45457;-74
2022/06/17 01:24:18;;;;;;;;;17.50;16.00;;;;;25.04;47.15;99555.22;5001820;28;45376;-74
2022/06/17 01:26:43;;;;;;;;;17.00;15.25;;;;;24.98;46.81;99547.69;5008309;28;45521;-75
2022/06/17 01:29:13;;;;;;;;;16.50;16.00;;;;;24.95;47.01;99560.66;5014091;28;45596;-75
2022/06/17 01:31:42;;;;;;;;;15.00;15.00;;;;;24.88;46.87;99554.06;5010411;28;45415;-74
2022/06/17 01:34:08;;;;;;;;;14.75;14.00;;;;;24.85;46.59;99551.66;4993800;28;45378;-75
2022/06/17 01:36:34;;;;;;;;;12.75;12.75;;;;;24.80;46.49;99549.38;5013934;28;45455;-75
2022/06/17 01:39:00;;;;;;;;;16.00;13.00;;;;;24.74;45.98;99549.09;5012441;28;45902;-75
2022/06/17 01:41:29;;;;;;;;;15.00;13.00;;;;;24.69;45.86;99547.66;5008988;28;46829;-75
2022/06/17 01:44:19;;;;;;;;;20.25;16.25;;;;;24.68;46.67;99550.50;5013252;28;45543;-75
2022/06/17 01:46:49;;;;;;;;;14.00;13.00;;;;;24.66;46.64;99547.09;5005473;28;45525;-75
2022/06/17 01:49:20;;;;;;;;;16.50;15.50;;;;;24.63;46.21;99556.31;5013599;28;45525;-75
2022/06/17 01:51:57;;;;;;;;;15.00;13.25;;;;;24.60;46.03;99553.91;5009657;28;45677;-74
2022/06/17 01:54:37;;;;;;;;;15.50;12.00;;;;;24.56;46.52;99548.94;5013416;28;45529;-75
2022/06/17 01:57:05;;;;;;;;;14.00;13.00;;;;;24.51;46.39;99557.44;5011488;28;45522;-75
2022/06/17 01:59:41;;;;;;;;;14.25;13.75;;;;;24.47;47.04;99547.91;5002322;28;45399;-75
2022/06/17 02:02:10;;;;;;;;;16.50;14.25;;;;;24.46;47.01;99561.56;5011407;28;45588;-75
2022/06/17 02:04:44;;;;;;;;;14.00;14.00;;;;;24.44;47.13;99552.75;5012766;28;45379;-75
2022/06/17 02:07:36;;;;;;;;;18.50;16.50;;;;;24.43;47.49;99554.59;5011762;28;45489;-75
2022/06/17 02:10:03;;;;;;;;;13.00;13.00;;;;;24.42;47.09;99550.19;5012911;28;45501;-75
2022/06/17 02:12:30;;;;;;;;;15.00;13.00;;;;;24.43;47.06;99556.44;5013735;28;46541;-75
2022/06/17 02:14:57;;;;;;;;;15.75;14.25;;;;;24.42;47.40;99562.81;5013745;28;45409;-74
2022/06/17 02:17:29;;;;;;;;;17.00;13.25;;;;;24.38;47.27;99564.94;5006963;28;45451;-75
2022/06/17 02:19:56;;;;;;;;;15.50;15.25;;;;;24.34;47.42;99558.94;5015479;28;45446;-75
2022/06/17 02:22:29;;;;;;;;;18.25;15.00;;;;;24.29;47.95;99563.94;5016902;28;45636;-75
2022/06/17 02:25:06;;;;;;;;;13.75;13.25;;;;;24.25;47.89;99564.31;5016521;28;45394;-75
2022/06/17 02:27:34;;;;;;;;;17.00;14.75;;;;;24.24;47.96;99562.63;5010934;28;45371;-75
2022/06/17 02:30:02;;;;;;;;;16.50;16.00;;;;;24.24;47.64;99565.31;5027534;28;45603;-75
2022/06/17 02:32:31;;;;;;;;;14.75;14.25;;;;;24.23;47.73;99561.78;5010316;28;45629;-75
2022/06/17 02:35:00;;;;;;;;;21.00;16.25;;;;;24.24;47.96;99565.31;5014236;28;45435;-75
2022/06/17 02:37:27;;;;;;;;;16.25;14.00;;;;;24.22;47.81;99573.50;5015149;28;45383;-75
2022/06/17 02:39:55;;;;;;;;;16.75;16.75;;;;;24.23;47.66;99577.94;5013692;28;45503;-75
2022/06/17 02:42:26;;;;;;;;;16.25;16.25;;;;;24.20;48.26;99585.41;5015629;28;45512;-75
2022/06/17 02:44:57;;;;;;;;;14.00;13.50;;;;;24.09;48.13;99586.38;5016128;28;45399;-75
2022/06/17 02:47:23;;;;;;;;;19.00;17.00;;;;;24.02;48.53;99582.50;5013851;28;45454;-74
2022/06/17 02:49:49;;;;;;;;;13.25;13.25;;;;;23.98;48.64;99591.81;5016381;28;45395;-74
2022/06/17 02:52:18;;;;;;;;;16.25;16.25;;;;;23.93;48.95;99597.63;5016409;28;45446;-75
2022/06/17 02:54:54;;;;;;;;;12.00;11.00;;;;;23.86;48.18;99599.16;5014158;28;45489;-74
2022/06/17 02:57:25;;;;;;;;;14.50;14.50;;;;;23.83;48.87;99598.56;5014905;28;45482;-74
2022/06/17 03:00:12;;;;;;;;;18.00;14.25;;;;;23.81;49.40;99600.53;5014244;28;45404;-76
2022/06/17 03:02:48;;;;;;;;;14.50;13.00;;;;;23.80;49.78;99596.13;5015378;28;47032;-76
2022/06/17 03:05:22;;;;;;;;;15.25;13.00;;;;;23.76;49.57;99600.94;5013884;28;45477;-76
2022/06/17 03:07:49;;;;;;;;;16.75;16.50;;;;;23.73;49.21;99603.91;5007150;28;45391;-76
2022/06/17 03:10:22;;;;;;;;;16.75;15.75;;;;;23.71;49.40;99605.88;5012974;28;45395;-76
2022/06/17 03:12:56;;;;;;;;;17.75;15.50;;;;;23.69;49.48;99602.47;5014413;28;46196;-76
2022/06/17 03:15:23;;;;;;;;;19.50;17.25;;;;;23.70;49.42;99612.25;5011327;28;45488;-76
2022/06/17 03:17:48;;;;;;;;;15.00;13.75;;;;;23.70;49.54;99614.09;5014286;28;45502;-76
2022/06/17 03:20:20;;;;;;;;;16.00;15.50;;;;;23.71;49.42;99618.47;5014251;28;45539;-76
2022/06/17 03:22:49;;;;;;;;;17.00;14.00;;;;;23.70;49.00;99628.41;5015555;28;48301;-76
2022/06/17 03:25:24;;;;;;;;;15.25;14.00;;;;;23.70;49.39;99631.09;5027622;28;45442;-76
2022/06/17 03:27:59;;;;;;;;;15.25;14.00;;;;;23.71;49.52;99626.56;5015143;28;45426;-76
2022/06/17 03:30:30;;;;;;;;;14.75;14.25;;;;;23.69;49.39;99632.06;5015279;28;45375;-76
2022/06/17 03:33:16;;;;;;;;;17.75;16.25;;;;;23.67;49.49;99636.72;5015466;28;45430;-76
2022/06/17 03:35:45;;;;;;;;;20.00;18.75;;;;;23.62;50.13;99623.69;5010282;28;45476;-76
2022/06/17 03:38:21;;;;;;;;;14.50;14.50;;;;;23.58;49.78;99630.31;5016014;28;45517;-76
2022/06/17 03:40:52;;;;;;;;;15.50;14.75;;;;;23.56;49.62;99634.97;5008863;28;45423;-76
2022/06/17 03:43:30;;;;;;;;;16.50;16.50;;;;;23.57;49.78;99638.53;5015333;28;46083;-76
2022/06/17 03:46:00;;;;;;;;;18.50;16.50;;;;;23.58;49.97;99648.31;5009264;28;45557;-76
2022/06/17 03:48:52;;;;;;;;;18.50;15.25;;;;;23.56;49.67;99644.88;5015140;28;45403;-76
2022/06/17 03:51:23;;;;;;;;;17.00;17.00;;;;;23.56;50.30;99643.03;4997232;28;45459;-76
2022/06/17 03:53:50;;;;;;;;;16.00;16.00;;;;;23.55;50.12;99648.56;5015233;28;45477;-76
2022/06/17 03:56:36;;;;;;;;;17.25;17.00;;;;;23.54;50.16;99649.53;4992216;28;45577;-76
2022/06/17 03:59:07;;;;;;;;;16.25;16.00;;;;;23.49;50.47;99649.88;5015179;28;45474;-76
2022/06/17 04:01:37;;;;;;;;;17.75;17.75;;;;;23.47;50.45;99653.69;5014665;28;45580;-76
2022/06/17 04:04:11;;;;;;;;;17.50;16.00;;;;;23.45;50.47;99658.38;5015031;28;45394;-76
2022/06/17 04:06:40;;;;;;;;;19.75;18.00;;;;;23.46;51.02;99662.78;5006432;28;45545;-76
2022/06/17 04:09:14;;;;;;;;;15.25;14.25;;;;;23.48;50.98;99664.34;5015351;28;45526;-76
2022/06/17 04:11:42;;;;;;;;;17.00;16.00;;;;;23.49;50.53;99666.03;5013128;28;45403;-76
2022/06/17 04:14:19;;;;;;;;;15.50;15.50;;;;;23.52;51.18;99671.19;5014732;28;45466;-76
2022/06/17 04:17:20;;;;;;;;;15.00;15.00;;;;;23.57;50.58;99668.13;5003558;28;45472;-76
2022/06/17 04:19:52;;;;;;;;;18.50;17.00;;;;;23.59;50.52;99677.78;4963631;28;45571;-76
2022/06/17 04:22:25;;;;;;;;;19.50;18.50;;;;;23.63;50.69;99676.50;5006453;28;45417;-76
2022/06/17 04:24:58;;;;;;;;;18.50;17.25;;;;;23.68;50.54;99676.13;5012828;28;45456;-76
2022/06/17 04:27:24;;;;;;;;;24.25;19.75;;;;;23.71;50.54;99678.56;4996405;28;45970;-76
2022/06/17 04:29:53;;;;;;;;;19.75;19.00;;;;;23.76;50.37;99680.88;4995966;28;45530;-75
2022/06/17 04:32:25;;;;;;;;;19.75;19.25;;;;;23.80;50.32;99685.00;5010323;28;45563;-76
2022/06/17 04:34:51;;;;;;;;;17.00;17.00;;;;;23.83;49.97;99682.03;5012411;28;46422;-76
2022/06/17 04:37:20;;;;;;;;;19.50;17.75;;;;;23.84;50.32;99687.28;5010638;28;45471;-76
2022/06/17 04:39:53;;;;;;;;;18.50;16.25;;;;;23.85;50.62;99689.00;4995074;28;45479;-76
2022/06/17 04:42:27;;;;;;;;;17.00;16.25;;;;;23.86;50.99;99690.72;5013710;28;45387;-75
2022/06/17 04:44:52;;;;;;;;;21.25;19.25;;;;;23.86;50.73;99688.03;5013570;28;46113;-76
2022/06/17 04:47:20;;;;;;;;;18.00;17.00;;;;;23.89;50.58;99686.91;5013881;28;45537;-77
2022/06/17 04:50:13;;;;;;;;;22.00;18.50;;;;;23.91;50.78;99682.25;5012580;28;45510;-76
2022/06/17 04:52:44;;;;;;;;;19.00;18.75;;;;;23.92;51.54;99692.03;5013948;28;45510;-74
2022/06/17 04:55:22;;;;;;;;;16.25;15.50;;;;;23.94;50.96;99692.75;5010691;28;46162;-76
2022/06/17 04:57:48;;;;;;;;;21.25;19.50;;;;;23.94;51.36;99682.84;5014134;28;45407;-82
2022/06/17 05:00:20;;;;;;;;;18.50;17.75;;;;;24.00;51.50;99684.13;5011972;28;45469;-57
2022/06/17 05:02:47;;;;;;;;;15.25;15.25;;;;;24.05;51.76;99675.66;5004449;28;45482;-58
2022/06/17 05:05:16;;;;;;;;;18.25;18.25;;;;;24.10;51.45;99670.75;5010368;28;45629;-57
2022/06/17 05:07:46;;;;;;;;;19.00;17.75;;;;;24.13;51.04;99676.69;5011335;28;45573;-57
2022/06/17 05:10:19;;;;;;;;;21.00;19.50;;;;;24.17;51.44;99677.28;5011135;28;45381;-58
2022/06/17 05:12:49;;;;;;;;;17.50;17.00;;;;;24.21;51.11;99676.88;5013206;28;45461;-66
2022/06/17 05:15:18;;;;;;;;;18.75;17.75;;;;;24.25;51.15;99677.50;5009794;28;47264;-59
2022/06/17 05:17:44;;;;;;;;;24.25;22.75;;;;;24.28;51.30;99674.56;5010673;28;45386;-59
2022/06/17 05:20:13;;;;;;;;;20.25;19.25;;;;;24.29;51.19;99669.03;5009827;28;45398;-58
2022/06/17 05:22:44;;;;;;;;;17.50;17.50;;;;;24.32;50.89;99663.34;5009738;28;45629;-58
2022/06/17 05:25:37;;;;;;;;;22.25;20.25;;;;;24.35;51.19;99670.31;5011450;28;46416;-58
2022/06/17 05:28:04;;;;;;;;;21.00;18.50;;;;;24.38;51.46;99671.88;5000525;28;45470;-58
2022/06/17 05:30:36;;;;;;;;;24.00;21.00;;;;;24.41;50.83;99675.16;5009728;28;45478;-58
2022/06/17 05:33:01;;;;;;;;;20.50;19.50;;;;;24.42;50.39;99674.19;5011407;28;45510;-58
2022/06/17 05:35:27;;;;;;;;;17.75;17.75;;;;;24.43;50.70;99666.94;5009019;28;46320;-58
2022/06/17 05:37:53;;;;;;;;;19.25;19.25;;;;;24.47;50.63;99671.06;5010938;28;45568;-58
2022/06/17 05:40:19;;;;;;;;;20.75;19.50;;;;;24.48;50.37;99670.06;5010759;28;45611;-58
2022/06/17 05:42:46;;;;;;;;;21.25;18.25;;;;;24.51;50.40;99677.88;5011558;28;45526;-58
2022/06/17 05:45:25;;;;;;;;;23.25;21.00;;;;;24.50;50.74;99678.88;5010594;28;45554;-58
2022/06/17 05:47:52;;;;;;;;;19.50;17.00;;;;;24.48;50.20;99678.16;4994105;28;45418;-59
2022/06/17 05:50:19;;;;;;;;;20.75;20.75;;;;;24.47;50.40;99677.28;5010341;28;45470;-58
2022/06/17 05:52:50;;;;;;;;;22.75;21.00;;;;;24.50;50.29;99674.34;5012820;28;45382;-58
2022/06/17 05:55:16;;;;;;;;;23.75;21.50;;;;;24.54;50.26;99683.88;5011129;28;45496;-58
2022/06/17 05:57:42;;;;;;;;;23.00;19.50;;;;;24.58;50.14;99679.91;5010746;28;45483;-58
2022/06/17 06:00:08;;;;;;;;;23.00;19.75;;;;;24.62;50.30;99680.50;5011560;28;45559;-58
2022/06/17 06:02:33;;;;;;;;;19.75;19.50;;;;;24.66;50.57;99688.16;5012280;28;45486;-58
2022/06/17 06:04:59;;;;;;;;;18.75;18.75;;;;;24.70;50.93;99683.34;5012056;28;45906;-58
2022/06/17 06:07:24;;;;;;;;;18.50;17.75;;;;;24.74;50.65;99689.31;5011962;28;45505;-58
2022/06/17 06:09:49;;;;;;;;;25.50;25.50;;;;;24.77;50.58;99683.66;5011850;28;45434;-59
2022/06/17 06:12:15;;;;;;;;;19.25;18.25;;;;;24.80;50.55;99686.91;5010884;28;45651;-59
2022/06/17 06:14:41;;;;;;;;;21.75;20.50;;;;;24.85;50.68;99686.50;5010783;28;46050;-58
2022/06/17 06:17:10;;;;;;;;;22.67;22.00;;;;;24.89;50.20;99687.94;5010495;28;45533;-58
2022/06/17 06:19:35;;;;;;;;;22.00;20.00;;;;;24.90;50.29;99690.50;5011491;28;45702;-58
2022/06/17 06:22:01;;;;;;;;;21.25;18.25;;;;;24.93;50.55;99692.94;5000516;28;45494;-58
2022/06/17 06:24:26;;;;;;;;;21.25;21.00;;;;;24.98;50.64;99687.13;4993477;28;47048;-60
2022/06/17 06:26:52;;;;;;;;;24.50;22.75;;;;;25.02;50.17;99683.16;5009757;28;45430;-60
2022/06/17 06:29:17;;;;;;;;;19.00;18.50;;;;;25.09;50.05;99691.56;5011830;28;45577;-60
2022/06/17 06:31:44;;;;;;;;;24.75;22.50;;;;;25.13;50.06;99690.31;5008980;28;45589;-60
2022/06/17 06:34:10;;;;;;;;;17.50;17.00;;;;;25.17;49.75;99684.47;5011571;28;46506;-60
2022/06/17 06:36:36;;;;;;;;;21.50;21.25;;;;;25.21;49.41;99688.59;5011568;28;45865;-60
2022/06/17 06:39:02;;;;;;;;;24.25;20.75;;;;;25.26;49.67;99689.03;5011538;28;45499;-61
2022/06/17 06:41:27;;;;;;;;;19.50;19.25;;;;;25.34;49.87;99689.16;5008375;28;45459;-60
2022/06/17 06:43:53;;;;;;;;;22.00;22.00;;;;;25.43;49.58;99686.63;5010021;28;45767;-59
2022/06/17 06:46:20;;;;;;;;;19.25;19.00;;;;;25.48;49.45;99696.00;5009897;28;45583;-59
2022/06/17 06:48:46;;;;;;;;;24.00;20.75;;;;;25.52;49.22;99688.47;5007560;28;45370;-59
2022/06/17 06:51:12;;;;;;;;;22.75;20.50;;;;;25.57;49.33;99694.28;5001989;28;45505;-61
2022/06/17 06:53:37;;;;;;;;;18.75;18.75;;;;;25.60;49.06;99696.72;5007881;28;46349;-59
2022/06/17 06:56:05;;;;;;;;;26.50;24.00;;;;;25.63;49.20;99700.03;5007787;28;45536;-59
2022/06/17 06:58:30;;;;;;;;;18.75;18.50;;;;;25.65;49.09;99698.00;5010032;28;45755;-59
2022/06/17 07:00:57;;;;;;;;;23.00;22.00;;;;;25.67;48.76;99696.00;5009556;28;45513;-60
2022/06/17 07:03:25;;;;;;;;;21.50;21.50;;;;;25.69;48.92;99699.44;5010701;28;46370;-59
2022/06/17 07:05:54;;;;;;;;;17.00;16.25;;;;;25.76;48.63;99698.88;5010751;28;45506;-60
2022/06/17 07:08:23;;;;;;;;;25.25;20.25;;;;;25.79;48.59;99698.59;5010940;28;45516;-59
2022/06/17 07:10:50;;;;;;;;;24.75;22.75;;;;;25.84;48.44;99704.38;4987878;28;45472;-59
2022/06/17 07:13:16;;;;;;;;;23.25;23.25;;;;;25.89;48.25;99697.56;5007531;28;45577;-59
2022/06/17 07:15:44;;;;;;;;;21.25;21.25;;;;;25.95;47.97;99698.84;4989684;28;45593;-60
2022/06/17 07:18:12;;;;;;;;;24.25;21.00;;;;;25.99;48.08;99700.22;5010618;28;45529;-60
2022/06/17 07:20:42;;;;;;;;;22.25;18.25;;;;;26.03;48.20;99697.09;5005996;28;45648;-60
2022/06/17 07:23:10;;;;;;;;;24.50;23.75;;;;;26.10;48.18;99702.78;4987335;28;47860;-60
2022/06/17 07:25:37;;;;;;;;;18.00;18.00;;;;;26.18;48.20;99699.34;5008472;28;45490;-60
2022/06/17 07:28:04;;;;;;;;;20.00;20.00;;;;;26.23;48.01;99694.34;5006558;28;45542;-60
2022/06/17 07:30:30;;;;;;;;;22.25;22.25;;;;;26.28;48.13;99700.19;5007430;28;45327;-60
2022/06/17 07:32:56;;;;;;;;;22.25;21.00;;;;;26.31;47.88;99698.03;5010105;28;46032;-59
2022/06/17 07:35:22;;;;;;;;;18.75;16.00;;;;;26.32;47.53;99691.63;5007899;28;45842;-59
2022/06/17 07:40:32;;;;;;;;;22.00;21.00;;;;;26.36;47.78;99689.50;5008219;28;45406;-59
2022/06/17 07:42:58;;;;;;;;;23.50;22.25;;;;;26.39;47.88;99686.50;5010171;28;46225;-59
2022/06/17 07:45:24;;;;;;;;;24.50;21.25;;;;;26.42;47.71;99687.06;5007292;28;45478;-59
2022/06/17 07:47:52;;;;;;;;;21.50;21.25;;;;;26.46;47.84;99682.22;5009974;28;45403;-62
2022/06/17 07:50:21;;;;;;;;;20.75;20.50;;;;;26.50;47.61;99682.75;5008304;28;45549;-62
2022/06/17 07:52:47;;;;;;;;;23.00;21.75;;;;;26.55;47.99;99677.75;4992511;28;48337;-61
2022/06/17 07:55:14;;;;;;;;;22.50;21.00;;;;;26.58;47.56;99680.16;5008065;28;45352;-62
2022/06/17 07:57:40;;;;;;;;;23.50;22.25;;;;;26.58;47.51;99672.03;5008875;28;45632;-59
2022/06/17 08:00:09;;;;;;;;;18.75;18.75;;;;;26.60;47.54;99678.16;4989847;28;45582;-59
2022/06/17 08:02:34;;;;;;;;;22.00;22.00;;;;;26.61;47.38;99667.19;4991785;28;47287;-59
2022/06/17 08:04:59;;;;;;;;;21.00;20.00;;;;;26.64;47.36;99663.34;5010693;28;45363;-58
2022/06/17 08:07:25;;;;;;;;;20.50;20.50;;;;;26.68;47.82;99668.28;5007346;28;45364;-61
2022/06/17 08:09:50;;;;;;;;;21.75;20.75;;;;;26.72;47.43;99663.44;5012109;28;45373;-59
2022/06/17 08:12:16;;;;;;;;;22.75;20.75;;;;;26.77;47.13;99661.13;5015157;28;45573;-59
2022/06/17 08:14:43;;;;;;;;;24.00;21.75;;;;;26.80;47.22;99652.72;5010386;28;45393;-61
2022/06/17 08:17:14;;;;;;;;;19.75;19.75;;;;;26.85;47.05;99660.34;5011761;28;45593;-59
2022/06/17 08:19:40;;;;;;;;;24.50;23.50;;;;;26.90;46.91;99652.63;5008015;28;45505;-59
2022/06/17 08:22:06;;;;;;;;;22.25;22.25;;;;;26.94;47.08;99644.09;5014188;28;45863;-59
2022/06/17 08:24:32;;;;;;;;;24.00;22.00;;;;;27.00;46.85;99638.06;5009872;28;45403;-59
2022/06/17 08:26:57;;;;;;;;;22.50;19.50;;;;;27.06;46.83;99636.59;5003501;28;45385;-59
2022/06/17 08:29:26;;;;;;;;;20.00;19.25;;;;;27.14;46.75;99638.56;5013423;28;45568;-59
2022/06/17 08:31:51;;;;;;;;;24.25;21.00;;;;;27.19;46.39;99642.47;5008984;28;45564;-59
2022/06/17 08:34:17;;;;;;;;;23.50;22.75;;;;;27.28;46.55;99629.88;5014055;28;45475;-59
2022/06/17 08:36:42;;;;;;;;;24.25;22.75;;;;;27.33;46.44;99620.25;5010627;28;45472;-59
2022/06/17 08:39:10;;;;;;;;;24.50;23.50;;;;;27.41;46.69;99620.34;5012667;28;45507;-59
2022/06/17 08:42:09;;;;;;;;;25.25;23.50;;;;;27.47;46.48;99618.03;5008031;28;46439;-59
2022/06/17 08:44:59;;;;;;;;;28.25;23.00;;;;;27.47;45.97;99613.47;5007479;28;46236;-61
2022/06/17 08:47:35;;;;;;;;;20.25;18.00;;;;;27.47;45.83;99607.19;5012865;28;45403;-59
2022/06/17 08:50:28;;;;;;;;;25.00;25.00;;;;;27.49;46.27;99605.16;5013629;28;45284;-59
2022/06/17 08:53:18;;;;;;;;;24.75;24.75;;;;;27.54;46.00;99609.09;5014163;28;45473;-59
2022/06/17 08:55:58;;;;;;;;;23.00;22.75;;;;;27.58;45.49;99605.09;5013466;28;45438;-59
2022/06/17 08:58:40;;;;;;;;;27.50;23.00;;;;;27.60;45.84;99594.13;5013889;28;45595;-61
2022/06/17 09:01:06;;;;;;;;;24.00;22.25;;;;;27.64;45.64;99599.06;5013538;28;45466;-58
2022/06/17 09:03:31;;;;;;;;;21.75;19.75;;;;;27.69;45.14;99595.84;5013542;28;46179;-66
2022/06/17 09:06:29;;;;;;;;;22.00;21.25;;;;;27.73;45.23;99589.13;5013673;28;45505;-58
2022/06/17 09:09:19;;;;;;;;;24.00;20.75;;;;;27.84;45.12;99583.41;5002555;28;45455;-58
2022/06/17 09:11:57;;;;;;;;;21.25;20.75;;;;;27.94;44.64;99578.75;4995584;28;45467;-58
2022/06/17 09:14:49;;;;;;;;;22.75;22.00;;;;;28.04;44.62;99570.50;5012192;28;47726;-58
2022/06/17 09:17:24;;;;;;;;;18.75;15.50;;;;;28.12;44.92;99568.69;5012833;28;45679;-59
2022/06/17 09:19:56;;;;;;;;;21.50;21.00;;;;;28.21;44.05;99575.00;5012810;28;45470;-60
2022/06/17 09:22:28;;;;;;;;;24.00;22.75;;;;;28.28;43.78;99569.81;5013618;28;45351;-59
2022/06/17 09:25:01;;;;;;;;;22.25;22.25;;;;;28.29;43.83;99576.91;5014515;28;46453;-60
2022/06/17 09:27:35;;;;;;;;;21.75;20.75;;;;;28.32;44.17;99572.00;5017352;28;45488;-60
2022/06/17 09:30:08;;;;;;;;;22.00;19.25;;;;;28.40;44.04;99574.75;5015256;28;45515;-60
2022/06/17 09:32:43;;;;;;;;;20.50;20.00;;;;;28.48;44.39;99574.81;5016868;28;45405;-60
2022/06/17 09:35:16;;;;;;;;;25.33;23.67;;;;;28.54;43.58;99578.69;5016794;28;47016;-59
2022/06/17 09:37:58;;;;;;;;;27.00;25.67;;;;;28.56;43.52;99581.25;5016824;28;45427;-59
2022/06/17 09:40:35;;;;;;;;;23.75;22.50;;;;;28.57;43.09;99574.81;5016454;28;45455;-60
2022/06/17 09:43:12;;;;;;;;;24.00;22.00;;;;;28.61;43.12;99571.59;4998900;28;45412;-60
2022/06/17 09:45:44;;;;;;;;;23.25;22.25;;;;;28.70;43.59;99567.88;5016862;28;45526;-60
2022/06/17 09:48:20;;;;;;;;;21.50;21.00;;;;;28.81;43.56;99574.91;5017114;28;45467;-59
2022/06/17 09:51:06;;;;;;;;;22.00;20.25;;;;;28.86;42.95;99568.97;5016700;28;45434;-59
2022/06/17 09:53:37;;;;;;;;;24.75;24.50;;;;;28.88;43.41;99569.63;5016730;28;45383;-60
2022/06/17 09:56:14;;;;;;;;;24.33;24.00;;;;;28.92;43.47;99571.00;5016905;28;45673;-60
2022/06/17 09:58:49;;;;;;;;;24.00;22.00;;;;;28.98;43.46;99571.19;5016587;28;45518;-60
2022/06/17 10:01:15;;;;;;;;;25.33;23.33;;;;;29.05;43.56;99569.50;5016413;28;45450;-59
2022/06/17 10:03:41;;;;;;;;;25.00;23.75;;;;;29.09;43.05;99572.72;5016185;28;45373;-60
2022/06/17 10:06:25;;;;;;;;;24.25;23.00;;;;;29.14;43.20;99578.50;5016489;28;45506;-60
2022/06/17 10:08:54;;;;;;;;;27.25;25.25;;;;;29.23;42.92;99579.34;5005482;28;45336;-60
2022/06/17 10:11:51;;;;;;;;;24.67;23.00;;;;;29.31;42.40;99576.66;5016939;28;45375;-60
2022/06/17 10:14:19;;;;;;;;;24.50;24.50;;;;;29.39;42.54;99579.38;5016024;28;45425;-60
2022/06/17 10:20:01;;;;;;;;;24.50;22.50;;;;;29.49;41.39;99578.16;5016253;28;45422;-60
2022/06/17 10:22:45;;;;;;;;;30.00;23.75;;;;;29.51;40.47;99570.69;5013961;28;45511;-58
2022/06/17 10:25:31;;;;;;;;;20.25;19.50;;;;;29.58;40.82;99578.19;5016303;28;45434;-59
2022/06/17 10:28:09;;;;;;;;;19.50;19.50;;;;;29.63;40.05;99576.66;5014762;28;46990;-57
2022/06/17 10:31:08;;;;;;;;;22.75;21.75;;;;;29.59;40.23;99566.28;5015898;28;45466;-59
2022/06/17 10:33:39;;;;;;;;;21.50;20.25;;;;;29.68;40.09;99562.53;5016417;28;45492;-59
2022/06/17 10:36:06;;;;;;;;;20.25;19.00;;;;;29.77;40.13;99561.50;5015879;28;45527;-59
2022/06/17 10:38:37;;;;;;;;;24.00;22.00;;;;;29.85;39.44;99561.47;5031075;28;48319;-59
2022/06/17 10:41:02;;;;;;;;;21.75;16.50;;;;;29.95;40.33;99564.00;5014862;28;45477;-59
2022/06/17 10:43:41;;;;;;;;;17.00;17.00;;;;;29.98;38.68;99553.66;4997470;28;45443;-59
2022/06/17 10:46:14;;;;;;;;;16.00;15.25;;;;;30.02;38.72;99549.53;5015668;28;45426;-59
2022/06/17 10:48:46;;;;;;;;;17.00;17.00;;;;;29.99;39.49;99549.94;5015772;28;45446;-59
2022/06/17 10:51:11;;;;;;;;;17.00;17.00;;;;;30.02;38.63;99549.53;4997749;28;45677;-59
2022/06/17 10:53:57;;;;;;;;;19.75;19.75;;;;;30.07;39.24;99554.47;5016492;28;45292;-59
2022/06/17 10:56:31;;;;;;;;;15.00;15.00;;;;;30.11;39.34;99545.78;5016135;28;45279;-59
2022/06/17 10:59:01;;;;;;;;;17.75;17.00;;;;;30.17;38.96;99555.09;5014665;28;46648;-59
2022/06/17 11:01:46;;;;;;;;;14.75;13.75;;;;;30.20;38.90;99536.56;5015776;28;45513;-59
2022/06/17 11:04:26;;;;;;;;;17.00;17.00;;;;;30.26;38.94;99542.31;5015896;28;45354;-59
2022/06/17 11:06:57;;;;;;;;;17.00;17.00;;;;;30.32;39.06;99542.47;5015093;28;45338;-59
2022/06/17 11:09:31;;;;;;;;;17.75;17.75;;;;;30.38;38.42;99530.84;5007343;28;46554;-59
2022/06/17 11:12:03;;;;;;;;;21.50;20.50;;;;;30.46;38.74;99529.97;5000985;28;45415;-59
2022/06/17 11:14:32;;;;;;;;;19.00;16.75;;;;;30.56;38.57;99521.59;5015645;28;45440;-59
2022/06/17 11:16:58;;;;;;;;;16.00;15.25;;;;;30.67;38.86;99513.03;5012976;28;45561;-59
2022/06/17 11:19:26;;;;;;;;;18.75;18.75;;;;;30.78;38.24;99515.34;5014897;28;45490;-59
2022/06/17 11:21:59;;;;;;;;;15.00;14.50;;;;;30.83;38.24;99508.31;5015382;28;45378;-59
2022/06/17 11:24:40;;;;;;;;;18.75;15.75;;;;;30.91;39.01;99509.28;5014702;28;45481;-59
2022/06/17 11:27:24;;;;;;;;;19.75;19.00;;;;;30.97;38.21;99514.88;5015356;28;45354;-59
2022/06/17 11:29:52;;;;;;;;;18.00;17.25;;;;;31.00;38.60;99516.38;5014690;28;45991;-59
2022/06/17 11:32:20;;;;;;;;;15.50;15.50;;;;;31.06;38.71;99505.56;5013763;28;45434;-59
2022/06/17 11:34:49;;;;;;;;;19.25;16.50;;;;;31.13;37.85;99500.28;5015510;28;45378;-59
2022/06/17 11:37:19;;;;;;;;;16.50;16.00;;;;;31.21;37.74;99505.66;5015134;28;45505;-59
2022/06/17 11:39:45;;;;;;;;;15.50;15.50;;;;;31.26;37.60;99505.09;5015113;28;46707;-59
2022/06/17 11:42:18;;;;;;;;;17.00;16.25;;;;;31.30;37.27;99503.72;5017404;28;46180;-58
2022/06/17 11:44:57;;;;;;;;;18.25;17.75;;;;;31.35;37.68;99498.53;4988564;28;45521;-58